sensor_id;sensor_type;location;lat;lon;timestamp;temperature;humidity
9497;DHT22;4786;51.270;4.456;2023-02-12T00:00:42;8.30;99.90
9497;DHT22;4786;51.270;4.456;2023-02-12T00:03:07;8.30;99.90
9497;DHT22;4786;51.270;4.456;2023-02-12T00:05:36;8.40;99.90
9497;DHT22;4786;51.270;4.456;2023-02-12T00:08:02;8.40;99.90
9497;DHT22;4786;51.270;4.456;2023-02-12T00:10:28;8.40;99.90
9497;DHT22;4786;51.270;4.456;2023-02-12T00:12:53;8.40;99.90
9497;DHT22;4786;51.270;4.456;2023-02-12T00:15:19;8.40;99.90
9497;DHT22;4786;51.270;4.456;2023-02-12T00:17:46;8.30;99.90
9497;DHT22;4786;51.270;4.456;2023-02-12T00:20:12;8.30;99.90
9497;DHT22;4786;51.270;4.456;2023-02-12T00:22:37;8.30;99.90
9497;DHT22;4786;51.270;4.456;2023-02-12T00:25:04;8.30;99.90
9497;DHT22;4786;51.270;4.456;2023-02-12T00:27:34;8.30;99.90
9497;DHT22;4786;51.270;4.456;2023-02-12T00:30:00;8.30;99.90
9497;DHT22;4786;51.270;4.456;2023-02-12T00:32:26;8.30;99.90
9497;DHT22;4786;51.270;4.456;2023-02-12T00:34:52;8.20;99.90
9497;DHT22;4786;51.270;4.456;2023-02-12T00:37:19;8.30;99.90
9497;DHT22;4786;51.270;4.456;2023-02-12T00:39:45;8.30;99.90
9497;DHT22;4786;51.270;4.456;2023-02-12T00:42:11;8.30;99.90
9497;DHT22;4786;51.270;4.456;2023-02-12T00:44:37;8.30;99.90
9497;DHT22;4786;51.270;4.456;2023-02-12T00:47:04;8.30;99.90
9497;DHT22;4786;51.270;4.456;2023-02-12T00:49:31;8.30;99.90
9497;DHT22;4786;51.270;4.456;2023-02-12T00:52:02;8.20;99.90
9497;DHT22;4786;51.270;4.456;2023-02-12T00:54:28;8.20;99.90
9497;DHT22;4786;51.270;4.456;2023-02-12T00:56:55;8.20;99.90
9497;DHT22;4786;51.270;4.456;2023-02-12T00:59:22;8.20;99.90
9497;DHT22;4786;51.270;4.456;2023-02-12T01:01:48;8.30;99.90
9497;DHT22;4786;51.270;4.456;2023-02-12T01:04:14;8.40;99.90
9497;DHT22;4786;51.270;4.456;2023-02-12T01:06:40;8.30;99.90
9497;DHT22;4786;51.270;4.456;2023-02-12T01:09:07;8.40;99.90
9497;DHT22;4786;51.270;4.456;2023-02-12T01:11:33;8.40;99.90
9497;DHT22;4786;51.270;4.456;2023-02-12T01:13:59;8.20;99.90
9497;DHT22;4786;51.270;4.456;2023-02-12T01:16:25;8.20;99.90
9497;DHT22;4786;51.270;4.456;2023-02-12T01:18:53;8.20;99.90
9497;DHT22;4786;51.270;4.456;2023-02-12T01:21:26;8.20;99.90
9497;DHT22;4786;51.270;4.456;2023-02-12T01:23:52;8.20;99.90
9497;DHT22;4786;51.270;4.456;2023-02-12T01:26:20;8.20;99.90
9497;DHT22;4786;51.270;4.456;2023-02-12T01:28:52;8.20;99.90
9497;DHT22;4786;51.270;4.456;2023-02-12T01:31:21;8.20;99.90
9497;DHT22;4786;51.270;4.456;2023-02-12T01:33:49;8.20;99.90
9497;DHT22;4786;51.270;4.456;2023-02-12T01:36:16;8.20;99.90
9497;DHT22;4786;51.270;4.456;2023-02-12T01:38:43;8.20;99.90
9497;DHT22;4786;51.270;4.456;2023-02-12T01:41:15;8.10;99.90
9497;DHT22;4786;51.270;4.456;2023-02-12T01:43:41;8.10;99.90
9497;DHT22;4786;51.270;4.456;2023-02-12T01:46:10;8.10;99.90
9497;DHT22;4786;51.270;4.456;2023-02-12T01:48:42;8.10;99.90
9497;DHT22;4786;51.270;4.456;2023-02-12T01:51:12;8.20;99.90
9497;DHT22;4786;51.270;4.456;2023-02-12T01:53:43;8.20;99.90
9497;DHT22;4786;51.270;4.456;2023-02-12T01:56:12;8.20;99.90
9497;DHT22;4786;51.270;4.456;2023-02-12T01:58:41;8.10;99.90
9497;DHT22;4786;51.270;4.456;2023-02-12T02:01:12;8.10;99.90
9497;DHT22;4786;51.270;4.456;2023-02-12T02:03:44;8.10;99.90
9497;DHT22;4786;51.270;4.456;2023-02-12T02:06:17;8.20;99.90
9497;DHT22;4786;51.270;4.456;2023-02-12T02:08:45;8.10;99.90
9497;DHT22;4786;51.270;4.456;2023-02-12T02:11:11;8.10;99.90
9497;DHT22;4786;51.270;4.456;2023-02-12T02:13:55;8.10;99.90
9497;DHT22;4786;51.270;4.456;2023-02-12T02:16:46;8.10;99.90
9497;DHT22;4786;51.270;4.456;2023-02-12T02:22:16;8.20;99.90
9497;DHT22;4786;51.270;4.456;2023-02-12T02:33:07;8.10;99.90
9497;DHT22;4786;51.270;4.456;2023-02-12T02:35:46;8.10;99.90
9497;DHT22;4786;51.270;4.456;2023-02-12T02:38:28;8.10;99.90
9497;DHT22;4786;51.270;4.456;2023-02-12T02:41:10;8.10;99.90
9497;DHT22;4786;51.270;4.456;2023-02-12T02:43:46;8.00;99.90
9497;DHT22;4786;51.270;4.456;2023-02-12T02:46:17;7.90;99.90
9497;DHT22;4786;51.270;4.456;2023-02-12T02:48:49;7.90;99.90
9497;DHT22;4786;51.270;4.456;2023-02-12T02:51:28;7.90;99.90
9497;DHT22;4786;51.270;4.456;2023-02-12T02:54:48;8.00;99.90
9497;DHT22;4786;51.270;4.456;2023-02-12T02:57:28;8.00;99.90
9497;DHT22;4786;51.270;4.456;2023-02-12T03:00:06;8.00;99.90
9497;DHT22;4786;51.270;4.456;2023-02-12T03:02:39;8.00;99.90
9497;DHT22;4786;51.270;4.456;2023-02-12T03:05:28;8.00;99.90
9497;DHT22;4786;51.270;4.456;2023-02-12T03:08:02;8.10;99.90
9497;DHT22;4786;51.270;4.456;2023-02-12T03:10:37;8.00;99.90
9497;DHT22;4786;51.270;4.456;2023-02-12T03:13:15;8.00;99.90
9497;DHT22;4786;51.270;4.456;2023-02-12T03:18:41;8.00;99.90
9497;DHT22;4786;51.270;4.456;2023-02-12T03:21:21;7.90;99.90
9497;DHT22;4786;51.270;4.456;2023-02-12T03:23:54;7.90;99.90
9497;DHT22;4786;51.270;4.456;2023-02-12T03:26:25;7.90;99.90
9497;DHT22;4786;51.270;4.456;2023-02-12T03:28:51;7.90;99.90
9497;DHT22;4786;51.270;4.456;2023-02-12T03:31:41;8.00;99.90
9497;DHT22;4786;51.270;4.456;2023-02-12T03:36:58;8.00;99.90
9497;DHT22;4786;51.270;4.456;2023-02-12T03:42:33;8.00;99.90
9497;DHT22;4786;51.270;4.456;2023-02-12T03:53:19;7.90;99.90
9497;DHT22;4786;51.270;4.456;2023-02-12T03:55:48;7.90;99.90
9497;DHT22;4786;51.270;4.456;2023-02-12T03:58:21;7.90;99.90
9497;DHT22;4786;51.270;4.456;2023-02-12T04:00:50;7.90;99.90
9497;DHT22;4786;51.270;4.456;2023-02-12T04:03:15;7.90;99.90
9497;DHT22;4786;51.270;4.456;2023-02-12T04:05:42;7.90;99.90
9497;DHT22;4786;51.270;4.456;2023-02-12T04:08:08;8.10;99.90
9497;DHT22;4786;51.270;4.456;2023-02-12T04:11:06;7.90;99.90
9497;DHT22;4786;51.270;4.456;2023-02-12T04:13:57;7.90;99.90
9497;DHT22;4786;51.270;4.456;2023-02-12T04:16:42;7.90;99.90
9497;DHT22;4786;51.270;4.456;2023-02-12T04:19:12;7.90;99.90
9497;DHT22;4786;51.270;4.456;2023-02-12T04:21:44;7.90;99.90
9497;DHT22;4786;51.270;4.456;2023-02-12T04:24:23;7.90;99.90
9497;DHT22;4786;51.270;4.456;2023-02-12T04:27:08;7.90;99.90
9497;DHT22;4786;51.270;4.456;2023-02-12T04:29:53;7.90;99.90
9497;DHT22;4786;51.270;4.456;2023-02-12T04:38:16;7.80;99.90
9497;DHT22;4786;51.270;4.456;2023-02-12T04:40:44;7.80;99.90
9497;DHT22;4786;51.270;4.456;2023-02-12T04:43:10;7.80;99.90
9497;DHT22;4786;51.270;4.456;2023-02-12T04:45:36;7.80;99.90
9497;DHT22;4786;51.270;4.456;2023-02-12T04:48:03;7.80;99.90
9497;DHT22;4786;51.270;4.456;2023-02-12T04:50:48;7.80;99.90
9497;DHT22;4786;51.270;4.456;2023-02-12T04:53:14;7.80;99.90
9497;DHT22;4786;51.270;4.456;2023-02-12T04:55:40;8.00;99.90
9497;DHT22;4786;51.270;4.456;2023-02-12T04:58:06;8.00;99.90
9497;DHT22;4786;51.270;4.456;2023-02-12T05:00:33;8.00;99.90
9497;DHT22;4786;51.270;4.456;2023-02-12T05:02:59;8.00;99.90
9497;DHT22;4786;51.270;4.456;2023-02-12T05:05:25;8.00;99.90
9497;DHT22;4786;51.270;4.456;2023-02-12T05:07:51;8.00;99.90
9497;DHT22;4786;51.270;4.456;2023-02-12T05:10:17;8.00;99.90
9497;DHT22;4786;51.270;4.456;2023-02-12T05:12:43;8.00;99.90
9497;DHT22;4786;51.270;4.456;2023-02-12T05:15:09;8.10;99.90
9497;DHT22;4786;51.270;4.456;2023-02-12T05:17:35;8.00;99.90
9497;DHT22;4786;51.270;4.456;2023-02-12T05:20:00;8.10;99.90
9497;DHT22;4786;51.270;4.456;2023-02-12T05:22:26;8.20;99.90
9497;DHT22;4786;51.270;4.456;2023-02-12T05:24:52;8.20;99.90
9497;DHT22;4786;51.270;4.456;2023-02-12T05:27:18;8.20;99.90
9497;DHT22;4786;51.270;4.456;2023-02-12T05:29:43;8.20;99.90
9497;DHT22;4786;51.270;4.456;2023-02-12T05:32:09;8.20;99.90
9497;DHT22;4786;51.270;4.456;2023-02-12T05:34:36;8.20;99.90
9497;DHT22;4786;51.270;4.456;2023-02-12T05:37:02;8.20;99.90
9497;DHT22;4786;51.270;4.456;2023-02-12T05:39:29;8.20;99.90
9497;DHT22;4786;51.270;4.456;2023-02-12T05:41:54;8.10;99.90
9497;DHT22;4786;51.270;4.456;2023-02-12T05:44:21;8.00;99.90
9497;DHT22;4786;51.270;4.456;2023-02-12T05:46:47;8.10;99.90
9497;DHT22;4786;51.270;4.456;2023-02-12T05:49:13;8.10;99.90
9497;DHT22;4786;51.270;4.456;2023-02-12T05:51:39;8.00;99.90
9497;DHT22;4786;51.270;4.456;2023-02-12T05:54:06;8.10;99.90
9497;DHT22;4786;51.270;4.456;2023-02-12T05:56:35;8.00;99.90
9497;DHT22;4786;51.270;4.456;2023-02-12T05:59:04;8.00;99.90
9497;DHT22;4786;51.270;4.456;2023-02-12T06:01:33;7.90;99.90
9497;DHT22;4786;51.270;4.456;2023-02-12T06:04:00;8.00;99.90
9497;DHT22;4786;51.270;4.456;2023-02-12T06:06:29;8.00;99.90
9497;DHT22;4786;51.270;4.456;2023-02-12T06:08:56;8.00;99.90
9497;DHT22;4786;51.270;4.456;2023-02-12T06:11:22;8.00;99.90
9497;DHT22;4786;51.270;4.456;2023-02-12T06:13:49;7.90;99.90
9497;DHT22;4786;51.270;4.456;2023-02-12T06:16:24;7.90;99.90
9497;DHT22;4786;51.270;4.456;2023-02-12T06:18:50;7.90;99.90
9497;DHT22;4786;51.270;4.456;2023-02-12T06:21:18;7.90;99.90
9497;DHT22;4786;51.270;4.456;2023-02-12T06:23:44;7.90;99.90
9497;DHT22;4786;51.270;4.456;2023-02-12T06:26:11;7.90;99.90
9497;DHT22;4786;51.270;4.456;2023-02-12T06:28:37;7.90;99.90
9497;DHT22;4786;51.270;4.456;2023-02-12T06:31:04;7.90;99.90
9497;DHT22;4786;51.270;4.456;2023-02-12T06:33:29;7.80;99.90
9497;DHT22;4786;51.270;4.456;2023-02-12T06:35:55;7.80;99.90
9497;DHT22;4786;51.270;4.456;2023-02-12T06:38:21;7.80;99.90
9497;DHT22;4786;51.270;4.456;2023-02-12T06:40:47;7.80;99.90
9497;DHT22;4786;51.270;4.456;2023-02-12T06:43:13;7.80;99.90
9497;DHT22;4786;51.270;4.456;2023-02-12T06:45:39;7.80;99.90
9497;DHT22;4786;51.270;4.456;2023-02-12T06:48:05;7.80;99.90
9497;DHT22;4786;51.270;4.456;2023-02-12T06:50:32;7.80;99.90
9497;DHT22;4786;51.270;4.456;2023-02-12T06:52:59;7.80;99.90
9497;DHT22;4786;51.270;4.456;2023-02-12T06:55:25;7.80;99.90
9497;DHT22;4786;51.270;4.456;2023-02-12T06:57:51;7.80;99.90
9497;DHT22;4786;51.270;4.456;2023-02-12T07:00:17;7.80;99.90
9497;DHT22;4786;51.270;4.456;2023-02-12T07:02:43;7.80;99.90
9497;DHT22;4786;51.270;4.456;2023-02-12T07:05:09;7.80;99.90
9497;DHT22;4786;51.270;4.456;2023-02-12T07:07:35;7.80;99.90
9497;DHT22;4786;51.270;4.456;2023-02-12T07:10:01;7.80;99.90
9497;DHT22;4786;51.270;4.456;2023-02-12T07:12:27;7.80;99.90
9497;DHT22;4786;51.270;4.456;2023-02-12T07:14:52;7.80;99.90
9497;DHT22;4786;51.270;4.456;2023-02-12T07:17:19;7.90;99.90
9497;DHT22;4786;51.270;4.456;2023-02-12T07:19:44;7.80;99.90
9497;DHT22;4786;51.270;4.456;2023-02-12T07:22:10;7.90;99.90
9497;DHT22;4786;51.270;4.456;2023-02-12T07:24:35;7.90;99.90
9497;DHT22;4786;51.270;4.456;2023-02-12T07:27:03;7.90;99.90
9497;DHT22;4786;51.270;4.456;2023-02-12T07:29:29;7.80;99.90
9497;DHT22;4786;51.270;4.456;2023-02-12T07:31:54;7.80;99.90
9497;DHT22;4786;51.270;4.456;2023-02-12T07:34:20;7.80;99.90
9497;DHT22;4786;51.270;4.456;2023-02-12T07:36:47;7.80;99.90
9497;DHT22;4786;51.270;4.456;2023-02-12T07:39:13;8.00;99.90
9497;DHT22;4786;51.270;4.456;2023-02-12T07:41:39;7.80;99.90
9497;DHT22;4786;51.270;4.456;2023-02-12T07:44:08;7.80;99.90
9497;DHT22;4786;51.270;4.456;2023-02-12T07:46:37;7.80;99.90
9497;DHT22;4786;51.270;4.456;2023-02-12T07:49:04;7.80;99.90
9497;DHT22;4786;51.270;4.456;2023-02-12T07:51:35;7.80;99.90
9497;DHT22;4786;51.270;4.456;2023-02-12T07:54:01;7.80;99.90
9497;DHT22;4786;51.270;4.456;2023-02-12T07:56:30;8.00;99.90
9497;DHT22;4786;51.270;4.456;2023-02-12T07:58:59;7.80;99.90
9497;DHT22;4786;51.270;4.456;2023-02-12T08:01:40;7.90;99.90
9497;DHT22;4786;51.270;4.456;2023-02-12T08:04:12;7.90;99.90
9497;DHT22;4786;51.270;4.456;2023-02-12T08:06:43;7.90;99.90
9497;DHT22;4786;51.270;4.456;2023-02-12T08:09:12;7.90;99.90
9497;DHT22;4786;51.270;4.456;2023-02-12T08:11:39;7.90;99.90
9497;DHT22;4786;51.270;4.456;2023-02-12T08:14:05;7.90;99.90
9497;DHT22;4786;51.270;4.456;2023-02-12T08:16:35;7.90;99.90
9497;DHT22;4786;51.270;4.456;2023-02-12T08:19:01;7.90;99.90
9497;DHT22;4786;51.270;4.456;2023-02-12T08:21:27;7.90;99.90
9497;DHT22;4786;51.270;4.456;2023-02-12T08:23:55;8.00;99.90
9497;DHT22;4786;51.270;4.456;2023-02-12T08:26:24;8.00;99.90
9497;DHT22;4786;51.270;4.456;2023-02-12T08:29:06;8.00;99.90
9497;DHT22;4786;51.270;4.456;2023-02-12T08:31:34;8.00;99.90
9497;DHT22;4786;51.270;4.456;2023-02-12T08:34:01;8.00;99.90
9497;DHT22;4786;51.270;4.456;2023-02-12T08:36:30;8.10;99.90
9497;DHT22;4786;51.270;4.456;2023-02-12T08:38:57;8.20;99.90
9497;DHT22;4786;51.270;4.456;2023-02-12T08:41:25;8.20;99.90
9497;DHT22;4786;51.270;4.456;2023-02-12T08:43:54;8.20;99.90
9497;DHT22;4786;51.270;4.456;2023-02-12T08:46:22;8.30;99.90
9497;DHT22;4786;51.270;4.456;2023-02-12T08:48:54;8.30;99.90
9497;DHT22;4786;51.270;4.456;2023-02-12T08:51:24;8.40;99.90
9497;DHT22;4786;51.270;4.456;2023-02-12T08:54:01;8.40;99.90
9497;DHT22;4786;51.270;4.456;2023-02-12T08:56:28;8.50;99.90
9497;DHT22;4786;51.270;4.456;2023-02-12T08:58:56;8.50;99.90
9497;DHT22;4786;51.270;4.456;2023-02-12T09:01:24;8.60;99.90
9497;DHT22;4786;51.270;4.456;2023-02-12T09:03:52;8.60;99.90
9497;DHT22;4786;51.270;4.456;2023-02-12T09:06:20;8.70;99.90
9497;DHT22;4786;51.270;4.456;2023-02-12T09:08:46;8.70;99.90
9497;DHT22;4786;51.270;4.456;2023-02-12T09:11:15;8.70;99.90
9497;DHT22;4786;51.270;4.456;2023-02-12T09:13:43;8.70;99.90
9497;DHT22;4786;51.270;4.456;2023-02-12T09:16:10;8.80;99.90
9497;DHT22;4786;51.270;4.456;2023-02-12T09:18:37;8.80;99.90
9497;DHT22;4786;51.270;4.456;2023-02-12T09:21:06;8.80;99.90
9497;DHT22;4786;51.270;4.456;2023-02-12T09:23:33;8.80;99.90
9497;DHT22;4786;51.270;4.456;2023-02-12T09:25:59;8.90;99.90
9497;DHT22;4786;51.270;4.456;2023-02-12T09:28:25;9.20;99.90
9497;DHT22;4786;51.270;4.456;2023-02-12T09:30:50;9.00;99.90
9497;DHT22;4786;51.270;4.456;2023-02-12T09:33:17;9.00;99.90
9497;DHT22;4786;51.270;4.456;2023-02-12T09:35:43;9.00;99.90
9497;DHT22;4786;51.270;4.456;2023-02-12T09:38:09;9.00;99.90
9497;DHT22;4786;51.270;4.456;2023-02-12T09:43:54;9.10;99.90
9497;DHT22;4786;51.270;4.456;2023-02-12T09:46:53;9.20;99.90
9497;DHT22;4786;51.270;4.456;2023-02-12T09:51:51;9.20;99.90
9497;DHT22;4786;51.270;4.456;2023-02-12T09:54:22;9.20;99.90
9497;DHT22;4786;51.270;4.456;2023-02-12T09:56:55;9.30;99.90
9497;DHT22;4786;51.270;4.456;2023-02-12T09:59:32;9.30;99.90
9497;DHT22;4786;51.270;4.456;2023-02-12T10:02:00;9.30;99.90
9497;DHT22;4786;51.270;4.456;2023-02-12T10:04:27;9.30;99.90
9497;DHT22;4786;51.270;4.456;2023-02-12T10:10:30;9.30;99.90
9497;DHT22;4786;51.270;4.456;2023-02-12T10:13:07;9.40;99.90
9497;DHT22;4786;51.270;4.456;2023-02-12T10:21:35;9.40;99.90
9497;DHT22;4786;51.270;4.456;2023-02-12T10:24:15;9.50;99.90
9497;DHT22;4786;51.270;4.456;2023-02-12T10:26:49;9.50;99.90
9497;DHT22;4786;51.270;4.456;2023-02-12T10:29:20;9.50;99.90
9497;DHT22;4786;51.270;4.456;2023-02-12T10:31:52;9.50;99.90
9497;DHT22;4786;51.270;4.456;2023-02-12T10:34:34;9.60;99.90
9497;DHT22;4786;51.270;4.456;2023-02-12T10:37:25;9.60;99.90
9497;DHT22;4786;51.270;4.456;2023-02-12T10:40:05;9.50;99.90
9497;DHT22;4786;51.270;4.456;2023-02-12T10:42:43;9.50;99.90
9497;DHT22;4786;51.270;4.456;2023-02-12T10:45:16;9.50;99.90
9497;DHT22;4786;51.270;4.456;2023-02-12T10:47:43;9.60;99.90
9497;DHT22;4786;51.270;4.456;2023-02-12T10:53:45;9.60;99.90
9497;DHT22;4786;51.270;4.456;2023-02-12T10:58:57;9.60;99.90
9497;DHT22;4786;51.270;4.456;2023-02-12T11:01:37;9.60;99.90
9497;DHT22;4786;51.270;4.456;2023-02-12T11:04:27;9.60;99.90
9497;DHT22;4786;51.270;4.456;2023-02-12T11:07:03;9.60;99.90
9497;DHT22;4786;51.270;4.456;2023-02-12T11:09:34;9.50;99.90
9497;DHT22;4786;51.270;4.456;2023-02-12T11:12:01;9.50;99.90
9497;DHT22;4786;51.270;4.456;2023-02-12T11:14:28;9.60;99.90
9497;DHT22;4786;51.270;4.456;2023-02-12T11:16:57;9.60;99.90
9497;DHT22;4786;51.270;4.456;2023-02-12T11:19:27;9.60;99.90
9497;DHT22;4786;51.270;4.456;2023-02-12T11:22:08;9.60;99.90
9497;DHT22;4786;51.270;4.456;2023-02-12T11:24:37;9.60;99.90
9497;DHT22;4786;51.270;4.456;2023-02-12T11:29:41;9.70;99.90
9497;DHT22;4786;51.270;4.456;2023-02-12T11:32:15;9.70;99.90
9497;DHT22;4786;51.270;4.456;2023-02-12T11:34:40;9.70;99.90
9497;DHT22;4786;51.270;4.456;2023-02-12T11:37:15;9.70;99.90
9497;DHT22;4786;51.270;4.456;2023-02-12T11:39:46;9.70;99.90
9497;DHT22;4786;51.270;4.456;2023-02-12T11:42:19;9.70;99.90
9497;DHT22;4786;51.270;4.456;2023-02-12T11:44:58;9.70;99.90
9497;DHT22;4786;51.270;4.456;2023-02-12T11:50:15;9.90;99.90
9497;DHT22;4786;51.270;4.456;2023-02-12T11:52:43;9.80;99.90
9497;DHT22;4786;51.270;4.456;2023-02-12T11:55:31;9.80;99.90
9497;DHT22;4786;51.270;4.456;2023-02-12T11:58:16;9.80;99.90
9497;DHT22;4786;51.270;4.456;2023-02-12T12:00:58;9.80;99.90
9497;DHT22;4786;51.270;4.456;2023-02-12T12:12:08;9.90;99.90
9497;DHT22;4786;51.270;4.456;2023-02-12T12:20:30;9.90;99.90
9497;DHT22;4786;51.270;4.456;2023-02-12T12:23:20;9.90;99.90
9497;DHT22;4786;51.270;4.456;2023-02-12T12:28:54;9.90;99.90
9497;DHT22;4786;51.270;4.456;2023-02-12T12:31:27;10.00;99.90
9497;DHT22;4786;51.270;4.456;2023-02-12T12:34:14;10.00;99.90
9497;DHT22;4786;51.270;4.456;2023-02-12T12:48:45;10.10;99.90
9497;DHT22;4786;51.270;4.456;2023-02-12T12:53:51;10.10;99.90
9497;DHT22;4786;51.270;4.456;2023-02-12T12:56:51;10.00;99.90
9497;DHT22;4786;51.270;4.456;2023-02-12T13:13:45;9.90;99.90
9497;DHT22;4786;51.270;4.456;2023-02-12T13:24:57;9.90;99.90
9497;DHT22;4786;51.270;4.456;2023-02-12T13:27:34;9.90;99.90
9497;DHT22;4786;51.270;4.456;2023-02-12T13:30:16;10.00;99.90
9497;DHT22;4786;51.270;4.456;2023-02-12T13:35:23;10.00;99.90
9497;DHT22;4786;51.270;4.456;2023-02-12T13:37:52;10.00;99.90
9497;DHT22;4786;51.270;4.456;2023-02-12T13:40:25;10.10;99.90
9497;DHT22;4786;51.270;4.456;2023-02-12T13:42:57;10.00;99.90
9497;DHT22;4786;51.270;4.456;2023-02-12T13:45:37;10.00;99.90
9497;DHT22;4786;51.270;4.456;2023-02-12T14:01:55;10.00;99.90
9497;DHT22;4786;51.270;4.456;2023-02-12T14:04:28;10.00;99.90
9497;DHT22;4786;51.270;4.456;2023-02-12T14:07:09;10.00;99.90
9497;DHT22;4786;51.270;4.456;2023-02-12T14:09:38;10.10;99.90
9497;DHT22;4786;51.270;4.456;2023-02-12T14:12:08;10.10;99.90
9497;DHT22;4786;51.270;4.456;2023-02-12T14:14:47;10.10;99.90
9497;DHT22;4786;51.270;4.456;2023-02-12T14:33:46;10.10;99.90
9497;DHT22;4786;51.270;4.456;2023-02-12T14:36:40;10.10;99.90
9497;DHT22;4786;51.270;4.456;2023-02-12T14:41:48;10.00;99.90
9497;DHT22;4786;51.270;4.456;2023-02-12T14:46:49;10.00;99.90
9497;DHT22;4786;51.270;4.456;2023-02-12T14:49:39;10.00;99.90
9497;DHT22;4786;51.270;4.456;2023-02-12T14:54:57;10.00;99.90
9497;DHT22;4786;51.270;4.456;2023-02-12T14:57:57;10.10;99.90
9497;DHT22;4786;51.270;4.456;2023-02-12T15:05:25;10.10;99.90
9497;DHT22;4786;51.270;4.456;2023-02-12T15:07:53;10.00;99.90
9497;DHT22;4786;51.270;4.456;2023-02-12T15:10:47;10.00;99.90
9497;DHT22;4786;51.270;4.456;2023-02-12T15:13:25;9.90;99.90
9497;DHT22;4786;51.270;4.456;2023-02-12T15:15:55;9.90;99.90
9497;DHT22;4786;51.270;4.456;2023-02-12T15:21:26;9.90;99.90
9497;DHT22;4786;51.270;4.456;2023-02-12T15:24:08;9.90;99.90
9497;DHT22;4786;51.270;4.456;2023-02-12T15:26:44;9.90;99.90
9497;DHT22;4786;51.270;4.456;2023-02-12T15:32:03;9.90;99.90
9497;DHT22;4786;51.270;4.456;2023-02-12T15:34:35;9.80;99.90
9497;DHT22;4786;51.270;4.456;2023-02-12T15:37:03;9.80;99.90
9497;DHT22;4786;51.270;4.456;2023-02-12T15:39:41;9.80;99.90
9497;DHT22;4786;51.270;4.456;2023-02-12T15:42:29;9.70;99.90
9497;DHT22;4786;51.270;4.456;2023-02-12T15:47:39;9.80;99.90
9497;DHT22;4786;51.270;4.456;2023-02-12T15:50:10;9.80;99.90
9497;DHT22;4786;51.270;4.456;2023-02-12T15:52:39;9.70;99.90
9497;DHT22;4786;51.270;4.456;2023-02-12T15:55:15;9.80;99.90
9497;DHT22;4786;51.270;4.456;2023-02-12T15:57:43;9.70;99.90
9497;DHT22;4786;51.270;4.456;2023-02-12T16:00:26;9.70;99.90
9497;DHT22;4786;51.270;4.456;2023-02-12T16:02:53;9.60;99.90
9497;DHT22;4786;51.270;4.456;2023-02-12T16:05:20;9.60;99.90
9497;DHT22;4786;51.270;4.456;2023-02-12T16:07:46;9.50;99.90
9497;DHT22;4786;51.270;4.456;2023-02-12T16:10:17;9.50;99.90
9497;DHT22;4786;51.270;4.456;2023-02-12T16:12:44;9.70;99.90
9497;DHT22;4786;51.270;4.456;2023-02-12T16:15:29;9.50;99.90
9497;DHT22;4786;51.270;4.456;2023-02-12T16:17:56;9.50;99.90
9497;DHT22;4786;51.270;4.456;2023-02-12T16:20:26;9.50;99.90
9497;DHT22;4786;51.270;4.456;2023-02-12T16:22:53;9.50;99.90
9497;DHT22;4786;51.270;4.456;2023-02-12T16:25:25;9.50;99.90
9497;DHT22;4786;51.270;4.456;2023-02-12T16:27:58;9.50;99.90
9497;DHT22;4786;51.270;4.456;2023-02-12T16:30:39;9.50;99.90
9497;DHT22;4786;51.270;4.456;2023-02-12T16:43:45;9.40;99.90
9497;DHT22;4786;51.270;4.456;2023-02-12T16:46:12;9.40;99.90
9497;DHT22;4786;51.270;4.456;2023-02-12T16:48:40;9.40;99.90
9497;DHT22;4786;51.270;4.456;2023-02-12T16:51:21;9.30;99.90
9497;DHT22;4786;51.270;4.456;2023-02-12T16:53:47;9.30;99.90
9497;DHT22;4786;51.270;4.456;2023-02-12T16:56:16;9.30;99.90
9497;DHT22;4786;51.270;4.456;2023-02-12T16:58:55;9.30;99.90
9497;DHT22;4786;51.270;4.456;2023-02-12T17:01:27;9.30;99.90
9497;DHT22;4786;51.270;4.456;2023-02-12T17:03:54;9.20;99.90
9497;DHT22;4786;51.270;4.456;2023-02-12T17:06:26;9.20;99.90
9497;DHT22;4786;51.270;4.456;2023-02-12T17:08:52;9.20;99.90
9497;DHT22;4786;51.270;4.456;2023-02-12T17:11:19;9.20;99.90
9497;DHT22;4786;51.270;4.456;2023-02-12T17:13:50;9.20;99.90
9497;DHT22;4786;51.270;4.456;2023-02-12T17:16:16;9.20;99.90
9497;DHT22;4786;51.270;4.456;2023-02-12T17:18:43;9.30;99.90
9497;DHT22;4786;51.270;4.456;2023-02-12T17:23:48;9.20;99.90
9497;DHT22;4786;51.270;4.456;2023-02-12T17:26:14;9.30;99.90
9497;DHT22;4786;51.270;4.456;2023-02-12T17:28:39;9.30;99.90
9497;DHT22;4786;51.270;4.456;2023-02-12T17:31:08;9.20;99.90
9497;DHT22;4786;51.270;4.456;2023-02-12T17:33:34;9.20;99.90
9497;DHT22;4786;51.270;4.456;2023-02-12T17:36:01;9.30;99.90
9497;DHT22;4786;51.270;4.456;2023-02-12T17:38:27;9.20;99.90
9497;DHT22;4786;51.270;4.456;2023-02-12T17:40:53;9.10;99.90
9497;DHT22;4786;51.270;4.456;2023-02-12T17:43:19;9.20;99.90
9497;DHT22;4786;51.270;4.456;2023-02-12T17:45:45;9.30;99.90
9497;DHT22;4786;51.270;4.456;2023-02-12T17:48:13;9.30;99.90
9497;DHT22;4786;51.270;4.456;2023-02-12T17:50:40;9.20;99.90
9497;DHT22;4786;51.270;4.456;2023-02-12T17:53:07;9.30;99.90
9497;DHT22;4786;51.270;4.456;2023-02-12T17:55:36;9.20;99.90
9497;DHT22;4786;51.270;4.456;2023-02-12T17:58:02;9.20;99.90
9497;DHT22;4786;51.270;4.456;2023-02-12T18:00:28;9.20;99.90
9497;DHT22;4786;51.270;4.456;2023-02-12T18:02:54;9.20;99.90
9497;DHT22;4786;51.270;4.456;2023-02-12T18:05:20;9.20;99.90
9497;DHT22;4786;51.270;4.456;2023-02-12T18:07:46;9.20;99.90
9497;DHT22;4786;51.270;4.456;2023-02-12T18:10:13;9.20;99.90
9497;DHT22;4786;51.270;4.456;2023-02-12T18:12:39;9.20;99.90
9497;DHT22;4786;51.270;4.456;2023-02-12T18:15:06;9.10;99.90
9497;DHT22;4786;51.270;4.456;2023-02-12T18:17:32;9.10;99.90
9497;DHT22;4786;51.270;4.456;2023-02-12T18:19:58;9.10;99.90
9497;DHT22;4786;51.270;4.456;2023-02-12T18:22:24;9.10;99.90
9497;DHT22;4786;51.270;4.456;2023-02-12T18:24:51;9.10;99.90
9497;DHT22;4786;51.270;4.456;2023-02-12T18:27:17;9.10;99.90
9497;DHT22;4786;51.270;4.456;2023-02-12T18:29:45;9.10;99.90
9497;DHT22;4786;51.270;4.456;2023-02-12T18:32:11;9.10;99.90
9497;DHT22;4786;51.270;4.456;2023-02-12T18:34:41;9.10;99.90
9497;DHT22;4786;51.270;4.456;2023-02-12T18:37:08;9.10;99.90
9497;DHT22;4786;51.270;4.456;2023-02-12T18:39:34;9.00;99.90
9497;DHT22;4786;51.270;4.456;2023-02-12T18:42:00;9.00;99.90
9497;DHT22;4786;51.270;4.456;2023-02-12T18:44:26;9.00;99.90
9497;DHT22;4786;51.270;4.456;2023-02-12T18:46:52;9.00;99.90
9497;DHT22;4786;51.270;4.456;2023-02-12T18:49:18;8.90;99.90
9497;DHT22;4786;51.270;4.456;2023-02-12T18:51:43;8.90;99.90
9497;DHT22;4786;51.270;4.456;2023-02-12T18:54:13;8.90;99.90
9497;DHT22;4786;51.270;4.456;2023-02-12T18:56:41;8.80;99.90
9497;DHT22;4786;51.270;4.456;2023-02-12T18:59:10;8.80;99.90
9497;DHT22;4786;51.270;4.456;2023-02-12T19:01:36;8.80;99.90
9497;DHT22;4786;51.270;4.456;2023-02-12T19:04:04;8.80;99.90
9497;DHT22;4786;51.270;4.456;2023-02-12T19:06:31;8.80;99.90
9497;DHT22;4786;51.270;4.456;2023-02-12T19:09:01;8.80;99.90
9497;DHT22;4786;51.270;4.456;2023-02-12T19:11:28;8.90;99.90
9497;DHT22;4786;51.270;4.456;2023-02-12T19:13:55;8.90;99.90
9497;DHT22;4786;51.270;4.456;2023-02-12T19:16:22;8.90;99.90
9497;DHT22;4786;51.270;4.456;2023-02-12T19:18:53;8.90;99.90
9497;DHT22;4786;51.270;4.456;2023-02-12T19:21:20;8.90;99.90
9497;DHT22;4786;51.270;4.456;2023-02-12T19:23:47;8.80;99.90
9497;DHT22;4786;51.270;4.456;2023-02-12T19:26:16;8.90;99.90
9497;DHT22;4786;51.270;4.456;2023-02-12T19:28:42;8.90;99.90
9497;DHT22;4786;51.270;4.456;2023-02-12T19:33:48;8.90;99.90
9497;DHT22;4786;51.270;4.456;2023-02-12T19:36:16;8.80;99.90
9497;DHT22;4786;51.270;4.456;2023-02-12T19:38:42;8.80;99.90
9497;DHT22;4786;51.270;4.456;2023-02-12T19:41:11;8.80;99.90
9497;DHT22;4786;51.270;4.456;2023-02-12T19:43:37;8.80;99.90